Time;durP1;ratioP1;P1;durP2;ratioP2;P2;SDS_P1;SDS_P2;PMS_P1;PMS_P2;Temp;Humidity;BMP_temperature;BMP_pressure;BME280_temperature;BME280_humidity;BME280_pressure;Samples;Min_cycle;Max_cycle;Signal;HPM_P1;HPM_P2
2022/09/06 00:00:35;;;;;;;6.93;3.95;;;20.40;99.90;;;;;;5072088;28;20041;-57
2022/09/06 00:03:01;;;;;;;4.75;3.38;;;20.30;99.90;;;;;;5072281;28;20093;-57
2022/09/06 00:05:27;;;;;;;3.53;3.22;;;20.30;99.90;;;;;;5072278;28;20052;-57
2022/09/06 00:07:53;;;;;;;3.65;3.35;;;20.30;99.90;;;;;;5072548;28;20102;-57
2022/09/06 00:10:19;;;;;;;9.02;3.55;;;20.30;99.90;;;;;;5072227;28;20473;-57
2022/09/06 00:12:46;;;;;;;3.45;3.13;;;20.20;99.90;;;;;;5072067;28;20048;-57
2022/09/06 00:15:12;;;;;;;8.98;3.05;;;20.20;99.90;;;;;;5072284;28;20414;-56
2022/09/06 00:17:38;;;;;;;6.40;3.83;;;20.20;99.90;;;;;;5072299;28;20056;-56
2022/09/06 00:20:07;;;;;;;3.58;3.25;;;20.10;99.90;;;;;;5072849;28;20040;-56
2022/09/06 00:22:35;;;;;;;4.82;3.53;;;20.10;99.90;;;;;;5072593;28;20048;-56
2022/09/06 00:25:01;;;;;;;5.10;3.28;;;20.00;99.90;;;;;;5071376;28;20055;-56
2022/09/06 00:27:27;;;;;;;3.50;3.22;;;20.00;99.90;;;;;;5072298;28;20055;-56
2022/09/06 00:29:53;;;;;;;4.30;3.83;;;19.90;99.90;;;;;;5071701;28;20036;-57
2022/09/06 00:32:18;;;;;;;5.18;3.50;;;20.00;99.90;;;;;;5072080;28;20410;-60
2022/09/06 00:34:44;;;;;;;4.40;4.00;;;19.90;99.90;;;;;;5072105;28;20043;-62
2022/09/06 00:37:10;;;;;;;3.75;3.00;;;19.90;99.90;;;;;;5060570;28;20063;-58
2022/09/06 00:39:35;;;;;;;4.57;3.88;;;19.80;99.90;;;;;;5052064;28;20052;-58
2022/09/06 00:42:01;;;;;;;4.15;3.60;;;19.80;99.90;;;;;;5051779;28;20044;-56
2022/09/06 00:44:27;;;;;;;4.35;3.55;;;19.80;99.90;;;;;;5069232;28;20119;-57
2022/09/06 00:46:53;;;;;;;4.45;3.33;;;19.70;99.90;;;;;;5072097;28;20086;-62
2022/09/06 00:49:29;;;;;;;4.20;3.42;;;19.70;99.90;;;;;;5071616;28;20401;-62
2022/09/06 00:52:00;;;;;;;5.15;3.50;;;19.70;99.90;;;;;;5071343;28;20045;-61
2022/09/06 00:54:26;;;;;;;3.95;3.60;;;19.70;99.90;;;;;;5072101;28;20045;-62
2022/09/06 00:56:54;;;;;;;3.63;3.33;;;19.70;99.90;;;;;;5072239;28;20036;-56
2022/09/06 00:59:20;;;;;;;5.10;3.75;;;19.60;99.90;;;;;;5071762;28;20079;-57
2022/09/06 01:01:46;;;;;;;5.20;4.57;;;19.60;99.90;;;;;;5072093;28;20063;-57
2022/09/06 01:04:13;;;;;;;3.85;3.42;;;19.60;99.90;;;;;;5075524;28;20394;-57
2022/09/06 01:07:11;;;;;;;4.50;4.10;;;19.60;99.90;;;;;;5074689;28;20044;-57
2022/09/06 01:10:04;;;;;;;7.55;4.53;;;19.60;99.90;;;;;;5047762;28;20052;-57
2022/09/06 01:12:50;;;;;;;4.88;3.20;;;19.50;99.90;;;;;;5074747;28;20049;-57
2022/09/06 01:15:54;;;;;;;5.20;3.08;;;19.50;99.90;;;;;;5058997;28;20041;-63
2022/09/06 01:19:00;;;;;;;3.83;3.42;;;19.50;99.90;;;;;;5062286;28;20052;-63
2022/09/06 01:22:01;;;;;;;4.00;3.20;;;19.40;99.90;;;;;;5053947;28;20055;-61
2022/09/06 01:24:41;;;;;;;4.72;3.38;;;19.40;99.90;;;;;;5055038;28;20457;-61
2022/09/06 01:27:30;;;;;;;4.07;3.65;;;19.40;99.90;;;;;;5055127;28;20053;-61
2022/09/06 01:30:07;;;;;;;4.00;3.60;;;19.40;99.90;;;;;;5054865;28;20415;-61
2022/09/06 01:32:55;;;;;;;4.13;3.40;;;19.40;99.90;;;;;;5056245;28;20095;-57
2022/09/06 01:35:49;;;;;;;4.72;3.78;;;19.40;99.90;;;;;;5075308;28;20040;-62
2022/09/06 01:38:15;;;;;;;;;;;19.40;99.90;;;;;;5061668;28;20052;-62
2022/09/06 01:40:41;;;;;;;5.45;3.60;;;19.40;99.90;;;;;;5056795;28;19920;-57
2022/09/06 01:43:11;;;;;;;4.65;3.65;;;19.30;99.90;;;;;;5074933;28;20054;-57
2022/09/06 01:45:43;;;;;;;3.67;3.38;;;19.30;99.90;;;;;;5074911;28;20044;-57
2022/09/06 01:48:21;;;;;;;4.15;3.75;;;19.30;99.90;;;;;;5074662;28;20040;-57
2022/09/06 01:51:05;;;;;;;5.80;3.78;;;19.30;99.90;;;;;;5074440;28;20557;-57
2022/09/06 01:53:58;;;;;;;6.43;3.53;;;19.30;99.90;;;;;;5056237;28;20051;-58
2022/09/06 01:56:38;;;;;;;7.90;4.38;;;19.30;99.90;;;;;;5074773;28;20037;-57
2022/09/06 01:59:39;;;;;;;6.13;3.63;;;19.20;99.90;;;;;;5074422;28;20051;-57
2022/09/06 02:02:15;;;;;;;5.15;3.20;;;19.30;99.90;;;;;;5073731;28;20124;-57
2022/09/06 02:05:01;;;;;;;4.82;3.53;;;19.20;99.90;;;;;;5074300;28;20048;-57
2022/09/06 02:07:33;;;;;;;5.03;3.72;;;19.20;99.90;;;;;;5073992;28;20048;-57
2022/09/06 02:10:18;;;;;;;3.70;3.40;;;19.10;99.90;;;;;;5074498;28;20037;-57
2022/09/06 02:12:46;;;;;;;7.40;4.50;;;19.10;99.90;;;;;;5073745;28;20045;-57
2022/09/06 02:15:21;;;;;;;5.05;3.70;;;19.20;99.90;;;;;;5073586;28;20045;-58
2022/09/06 02:17:57;;;;;;;3.72;3.38;;;19.20;99.90;;;;;;5074396;28;20115;-57
2022/09/06 02:20:28;;;;;;;3.92;3.58;;;19.10;99.90;;;;;;5074113;28;20470;-56
2022/09/06 02:22:57;;;;;;;4.35;3.67;;;19.10;99.90;;;;;;5073900;28;20055;-62
2022/09/06 02:25:34;;;;;;;4.32;3.55;;;19.10;99.90;;;;;;5073316;28;20056;-62
2022/09/06 02:28:00;;;;;;;4.32;3.90;;;19.10;99.90;;;;;;5073527;28;20155;-61
2022/09/06 02:30:25;;;;;;;8.30;4.10;;;19.10;99.90;;;;;;5073751;28;20485;-62
2022/09/06 02:33:07;;;;;;;4.22;3.83;;;19.10;99.90;;;;;;5055510;28;20469;-61
2022/09/06 02:35:42;;;;;;;4.53;3.95;;;19.10;99.90;;;;;;5073183;28;20367;-61
2022/09/06 02:38:08;;;;;;;6.53;4.22;;;19.10;99.90;;;;;;5069713;28;20048;-56
2022/09/06 02:40:34;;;;;;;4.55;4.15;;;19.10;99.90;;;;;;5073108;28;20041;-56
2022/09/06 02:43:00;;;;;;;5.05;3.92;;;19.10;99.90;;;;;;5073623;28;20043;-56
2022/09/06 02:45:25;;;;;;;4.28;3.88;;;19.10;99.90;;;;;;5073333;28;20452;-56
2022/09/06 02:47:51;;;;;;;5.78;4.13;;;19.10;99.90;;;;;;5073417;28;20040;-56
2022/09/06 02:50:16;;;;;;;5.47;3.97;;;19.10;99.90;;;;;;5073660;28;20576;-56
2022/09/06 02:52:42;;;;;;;5.10;4.30;;;19.00;99.90;;;;;;5072590;28;20513;-56
2022/09/06 02:55:08;;;;;;;5.05;4.57;;;19.00;99.90;;;;;;5073260;28;20044;-58
2022/09/06 02:57:34;;;;;;;4.35;3.95;;;19.00;99.90;;;;;;5073437;28;20047;-62
2022/09/06 03:00:00;;;;;;;6.35;4.70;;;19.00;99.90;;;;;;5073371;28;20040;-60
2022/09/06 03:02:26;;;;;;;4.00;3.70;;;19.00;99.90;;;;;;5073700;28;20135;-61
2022/09/06 03:04:51;;;;;;;4.80;4.25;;;19.00;99.90;;;;;;5073399;28;20085;-60
2022/09/06 03:07:17;;;;;;;5.60;4.10;;;19.00;99.90;;;;;;5072527;28;20052;-61
2022/09/06 03:09:43;;;;;;;5.10;4.57;;;18.90;99.90;;;;;;5072676;28;20470;-61
2022/09/06 03:12:08;;;;;;;6.07;4.45;;;18.90;99.90;;;;;;5055192;28;20044;-59
2022/09/06 03:14:34;;;;;;;4.85;4.32;;;18.90;99.90;;;;;;5073304;28;20078;-61
2022/09/06 03:17:01;;;;;;;7.28;4.53;;;18.90;99.90;;;;;;5073534;28;20076;-62
2022/09/06 03:19:27;;;;;;;3.97;3.53;;;18.80;99.90;;;;;;5072394;28;20552;-63
2022/09/06 03:21:52;;;;;;;5.00;3.65;;;18.80;99.90;;;;;;5071886;28;20131;-61
2022/09/06 03:24:18;;;;;;;5.05;4.03;;;18.80;99.90;;;;;;5071938;28;20124;-57
2022/09/06 03:26:44;;;;;;;5.13;4.38;;;18.80;99.90;;;;;;5072365;28;20054;-62
2022/09/06 03:29:10;;;;;;;4.47;4.10;;;18.80;99.90;;;;;;5072857;28;20051;-62
2022/09/06 03:31:35;;;;;;;4.95;4.55;;;18.80;99.90;;;;;;5072388;28;20037;-57
2022/09/06 03:34:01;;;;;;;5.43;4.60;;;18.70;99.90;;;;;;5072781;28;20050;-56
2022/09/06 03:36:26;;;;;;;7.43;5.05;;;18.80;99.90;;;;;;5067364;28;20184;-56
2022/09/06 03:38:52;;;;;;;5.07;4.38;;;18.70;99.90;;;;;;5064923;28;20082;-57
2022/09/06 03:41:19;;;;;;;6.50;5.10;;;18.70;99.90;;;;;;5069107;28;20051;-57
2022/09/06 03:43:44;;;;;;;5.85;4.40;;;18.70;99.90;;;;;;5054273;28;20474;-56
2022/09/06 03:46:10;;;;;;;6.35;4.25;;;18.70;99.90;;;;;;5072815;28;20075;-56
2022/09/06 03:48:36;;;;;;;5.88;5.38;;;18.60;99.90;;;;;;5072506;28;20486;-56
2022/09/06 03:51:01;;;;;;;5.88;5.38;;;18.60;99.90;;;;;;5072570;28;20383;-56
2022/09/06 03:53:28;;;;;;;6.03;5.32;;;18.60;99.90;;;;;;5072610;28;20127;-56
2022/09/06 03:55:56;;;;;;;5.82;5.22;;;18.60;99.90;;;;;;5072110;28;20052;-56
2022/09/06 03:58:23;;;;;;;6.88;5.55;;;18.60;99.90;;;;;;5052177;28;20052;-56
2022/09/06 04:00:49;;;;;;;5.60;5.10;;;18.60;99.90;;;;;;5070913;28;20119;-57
2022/09/06 04:03:18;;;;;;;6.30;5.18;;;18.60;99.90;;;;;;5068333;28;20041;-57
2022/09/06 04:05:44;;;;;;;7.60;4.90;;;18.50;99.90;;;;;;5052292;28;20127;-56
2022/09/06 04:08:10;;;;;;;7.03;5.88;;;18.50;99.90;;;;;;5051585;28;20103;-57
2022/09/06 04:10:37;;;;;;;6.47;5.85;;;18.50;99.90;;;;;;5056739;28;20052;-56
2022/09/06 04:13:02;;;;;;;6.70;4.88;;;18.50;99.90;;;;;;5071114;28;20490;-56
2022/09/06 04:15:28;;;;;;;6.63;5.78;;;18.50;99.90;;;;;;5071407;28;20060;-56
2022/09/06 04:17:53;;;;;;;5.68;5.20;;;18.40;99.90;;;;;;5044599;28;20057;-56
2022/09/06 04:20:19;;;;;;;6.75;5.78;;;18.40;99.90;;;;;;5052117;28;20139;-56
2022/09/06 04:22:45;;;;;;;6.55;5.95;;;18.40;99.90;;;;;;5051884;28;20561;-56
2022/09/06 04:25:12;;;;;;;6.45;5.90;;;18.50;99.90;;;;;;5052171;28;20041;-57
2022/09/06 04:27:38;;;;;;;5.90;5.22;;;18.40;99.90;;;;;;5052102;28;20056;-57
2022/09/06 04:30:04;;;;;;;6.07;5.47;;;18.50;99.90;;;;;;5051518;28;20052;-57
2022/09/06 04:32:31;;;;;;;7.63;5.75;;;18.40;99.90;;;;;;5051721;28;20045;-56
2022/09/06 04:34:57;;;;;;;5.88;5.30;;;18.40;99.90;;;;;;5056428;28;20051;-57
2022/09/06 04:37:22;;;;;;;6.82;5.80;;;18.40;99.90;;;;;;5059736;28;20045;-56
2022/09/06 04:39:48;;;;;;;7.38;6.43;;;18.40;99.90;;;;;;5055792;28;20171;-56
2022/09/06 04:42:14;;;;;;;7.80;5.55;;;18.50;99.90;;;;;;5074972;28;20477;-61
2022/09/06 04:44:40;;;;;;;8.05;6.28;;;18.40;99.90;;;;;;5075187;28;20036;-63
2022/09/06 04:47:11;;;;;;;7.57;6.05;;;18.50;99.90;;;;;;5075964;28;20489;-61
2022/09/06 04:49:37;;;;;;;7.70;6.13;;;18.50;99.90;;;;;;5074883;28;20047;-59
2022/09/06 04:52:03;;;;;;;7.05;6.15;;;18.50;99.90;;;;;;5075738;28;20048;-62
2022/09/06 04:54:28;;;;;;;6.97;5.88;;;18.50;99.90;;;;;;5075003;28;20093;-58
2022/09/06 04:56:54;;;;;;;6.60;5.70;;;18.50;99.90;;;;;;5074544;28;20051;-59
2022/09/06 04:59:20;;;;;;;6.93;5.88;;;18.50;99.90;;;;;;5074612;28;20039;-57
2022/09/06 05:01:45;;;;;;;6.45;5.85;;;18.40;99.90;;;;;;5075060;28;20063;-58
2022/09/06 05:04:11;;;;;;;9.80;6.90;;;18.50;99.90;;;;;;5074576;28;20044;-62
2022/09/06 05:06:38;;;;;;;7.47;6.47;;;18.50;99.90;;;;;;5074492;28;20051;-59
2022/09/06 05:09:03;;;;;;;7.30;6.35;;;18.40;99.90;;;;;;5074975;28;20052;-62
2022/09/06 05:11:29;;;;;;;7.25;6.55;;;18.40;99.90;;;;;;5074954;28;20041;-61
2022/09/06 05:13:55;;;;;;;7.35;6.60;;;18.50;99.90;;;;;;5074587;28;20079;-61
2022/09/06 05:16:20;;;;;;;7.18;6.40;;;18.40;99.90;;;;;;5067189;28;20383;-62
2022/09/06 05:18:46;;;;;;;7.38;6.68;;;18.40;99.90;;;;;;5064003;28;20118;-60
2022/09/06 05:21:12;;;;;;;6.47;5.88;;;18.40;99.90;;;;;;5035504;28;20611;-62
2022/09/06 05:23:37;;;;;;;8.30;6.95;;;18.50;99.90;;;;;;5054049;28;20056;-57
2022/09/06 05:26:03;;;;;;;8.23;7.30;;;18.40;99.90;;;;;;5058030;28;20049;-57
2022/09/06 05:28:29;;;;;;;7.72;6.65;;;18.40;99.90;;;;;;5064763;28;20060;-57
2022/09/06 05:31:22;;;;;;;9.00;6.78;;;18.40;99.90;;;;;;5052587;28;20510;-57
2022/09/06 05:33:47;;;;;;;11.00;6.75;;;18.40;99.90;;;;;;5074148;28;20048;-56
2022/09/06 05:36:13;;;;;;;9.27;7.22;;;18.40;99.90;;;;;;5075913;28;20051;-57
2022/09/06 05:38:39;;;;;;;9.20;6.63;;;18.40;99.90;;;;;;5073228;28;20036;-57
2022/09/06 05:41:04;;;;;;;8.85;6.80;;;18.40;99.90;;;;;;5063104;28;20043;-57
2022/09/06 05:43:30;;;;;;;8.00;7.15;;;18.50;99.90;;;;;;5052135;28;20398;-62
2022/09/06 05:45:56;;;;;;;8.30;7.03;;;18.50;99.90;;;;;;5068174;28;20037;-61
2022/09/06 05:48:21;;;;;;;9.23;7.85;;;18.50;99.90;;;;;;5065389;28;20071;-61
2022/09/06 05:50:47;;;;;;;8.73;7.53;;;18.50;99.90;;;;;;5067697;28;20045;-59
2022/09/06 05:53:12;;;;;;;11.50;8.05;;;18.60;99.90;;;;;;5073880;28;20051;-63
2022/09/06 05:55:38;;;;;;;7.30;6.60;;;18.60;99.90;;;;;;5071438;28;20556;-61
2022/09/06 05:58:04;;;;;;;8.57;6.90;;;18.60;99.90;;;;;;5052346;28;20098;-57
2022/09/06 06:00:29;;;;;;;10.07;6.97;;;18.70;99.90;;;;;;5067914;28;20382;-62
2022/09/06 06:02:55;;;;;;;7.60;6.78;;;18.70;99.90;;;;;;5069908;28;20474;-61
2022/09/06 06:05:20;;;;;;;9.52;6.78;;;18.70;99.90;;;;;;5070197;28;20549;-57
2022/09/06 06:07:46;;;;;;;8.45;7.18;;;18.70;99.90;;;;;;5056317;28;20620;-56
2022/09/06 06:10:12;;;;;;;7.93;7.00;;;18.80;99.90;;;;;;5071605;28;20501;-57
2022/09/06 06:12:37;;;;;;;8.43;7.45;;;18.80;99.90;;;;;;5073922;28;20049;-57
2022/09/06 06:15:04;;;;;;;7.32;6.68;;;18.80;99.90;;;;;;5055004;28;20044;-56
2022/09/06 06:17:30;;;;;;;8.68;7.53;;;18.90;99.90;;;;;;5068129;28;20090;-57
2022/09/06 06:19:57;;;;;;;7.53;6.78;;;19.00;99.90;;;;;;5055386;28;20045;-57
2022/09/06 06:22:22;;;;;;;7.75;6.20;;;19.10;99.90;;;;;;5072285;28;20425;-57
2022/09/06 06:24:48;;;;;;;7.78;6.78;;;19.10;99.90;;;;;;5071918;28;20071;-56
2022/09/06 06:27:14;;;;;;;8.82;7.93;;;19.30;99.90;;;;;;5071632;28;20056;-57
2022/09/06 06:29:39;;;;;;;8.88;7.70;;;19.30;99.90;;;;;;5071716;28;20076;-57
2022/09/06 06:32:05;;;;;;;8.00;7.20;;;19.30;99.90;;;;;;5072103;28;20087;-57
2022/09/06 06:34:31;;;;;;;9.63;8.57;;;19.40;99.90;;;;;;5072042;28;20041;-57
2022/09/06 06:36:57;;;;;;;9.02;8.15;;;19.50;99.90;;;;;;5064251;28;20053;-57
2022/09/06 06:39:22;;;;;;;8.95;7.82;;;19.50;99.90;;;;;;5053735;28;20045;-56
2022/09/06 06:41:49;;;;;;;8.75;7.85;;;19.50;99.90;;;;;;5054913;28;20542;-56
2022/09/06 06:44:15;;;;;;;9.40;8.35;;;19.60;99.90;;;;;;5073614;28;20048;-57
2022/09/06 06:46:41;;;;;;;8.15;7.38;;;19.60;99.90;;;;;;5073478;28;20063;-63
2022/09/06 06:49:06;;;;;;;8.38;7.57;;;19.70;99.90;;;;;;5073426;28;20044;-62
2022/09/06 06:51:35;;;;;;;8.45;7.70;;;19.60;99.90;;;;;;5055128;28;20040;-63
2022/09/06 06:54:02;;;;;;;10.68;8.65;;;19.50;99.90;;;;;;5073177;28;20041;-57
2022/09/06 06:56:30;;;;;;;11.52;7.78;;;19.50;99.90;;;;;;5073408;28;20052;-62
2022/09/06 06:58:58;;;;;;;12.82;8.30;;;19.50;99.90;;;;;;5073564;28;20049;-58
2022/09/06 07:01:26;;;;;;;8.48;7.68;;;19.40;99.90;;;;;;5073231;28;20043;-58
2022/09/06 07:03:53;;;;;;;11.13;8.00;;;19.40;99.90;;;;;;5072835;28;20101;-58
2022/09/06 07:06:19;;;;;;;11.07;8.52;;;19.40;99.90;;;;;;5054945;28;20052;-59
2022/09/06 07:08:46;;;;;;;9.07;8.18;;;19.40;99.90;;;;;;5073165;28;20086;-58
2022/09/06 07:11:14;;;;;;;9.13;8.32;;;19.30;99.90;;;;;;5073097;28;20032;-62
2022/09/06 07:13:40;;;;;;;8.15;7.35;;;19.30;99.90;;;;;;5072984;28;20393;-59
2022/09/06 07:16:14;;;;;;;9.20;8.30;;;19.20;99.90;;;;;;5073315;28;20051;-57
2022/09/06 07:18:42;;;;;;;9.38;8.50;;;19.30;99.90;;;;;;5056958;28;20052;-60
2022/09/06 07:21:13;;;;;;;9.88;8.65;;;19.20;99.90;;;;;;5066542;28;20226;-60
2022/09/06 07:23:38;;;;;;;11.35;8.65;;;19.20;99.90;;;;;;5072198;28;20504;-57
2022/09/06 07:26:04;;;;;;;9.10;8.07;;;19.20;99.90;;;;;;5072356;28;20052;-57
2022/09/06 07:28:30;;;;;;;9.88;8.88;;;19.20;99.90;;;;;;5054847;28;20496;-57
2022/09/06 07:30:57;;;;;;;9.60;8.70;;;19.30;99.90;;;;;;5072555;28;20044;-57
2022/09/06 07:33:22;;;;;;;9.27;8.40;;;19.50;99.90;;;;;;5073234;28;20126;-56
2022/09/06 07:35:59;;;;;;;12.27;9.00;;;19.70;99.90;;;;;;5072781;28;20477;-57
2022/09/06 07:38:29;;;;;;;10.27;8.25;;;19.90;99.90;;;;;;5053102;28;20372;-57
2022/09/06 07:40:57;;;;;;;10.10;9.10;;;20.30;99.90;;;;;;5052980;28;20045;-57
2022/09/06 07:43:23;;;;;;;10.75;9.65;;;20.40;99.90;;;;;;5052592;28;20088;-56
2022/09/06 07:45:57;;;;;;;9.95;8.85;;;20.40;99.90;;;;;;5052765;28;20044;-57
2022/09/06 07:48:23;;;;;;;9.75;8.75;;;20.50;99.90;;;;;;5052560;28;20048;-58
2022/09/06 07:50:49;;;;;;;9.82;8.82;;;20.80;99.90;;;;;;5067476;28;20043;-57
2022/09/06 07:53:15;;;;;;;10.43;8.55;;;20.90;99.90;;;;;;5072744;28;20056;-56
2022/09/06 07:55:40;;;;;;;9.90;8.30;;;21.10;99.90;;;;;;5072356;28;20539;-56
2022/09/06 07:58:06;;;;;;;9.48;8.45;;;21.50;99.90;;;;;;5072173;28;20040;-56
2022/09/06 08:00:32;;;;;;;10.65;9.65;;;22.00;99.90;;;;;;5071832;28;20044;-57
2022/09/06 08:02:58;;;;;;;11.80;9.68;;;22.30;99.90;;;;;;5072379;28;20536;-56
2022/09/06 08:05:23;;;;;;;10.32;8.98;;;22.60;99.90;;;;;;5072304;28;20090;-56
2022/09/06 08:07:50;;;;;;;9.65;8.65;;;22.80;99.90;;;;;;5054558;28;20052;-56
2022/09/06 08:10:16;;;;;;;10.65;9.55;;;22.90;99.90;;;;;;5072097;28;20486;-56
2022/09/06 08:12:41;;;;;;;10.05;9.05;;;23.50;99.90;;;;;;5073293;28;20128;-57
2022/09/06 08:15:07;;;;;;;10.52;9.40;;;23.60;99.90;;;;;;5074100;28;20072;-56
2022/09/06 08:17:34;;;;;;;11.65;9.43;;;24.30;99.90;;;;;;5049553;28;20044;-57
2022/09/06 08:20:04;;;;;;;8.32;7.63;;;24.50;99.90;;;;;;5053742;28;20098;-57
2022/09/06 08:22:33;;;;;;;8.45;7.75;;;24.50;99.90;;;;;;5038170;28;20037;-56
2022/09/06 08:24:58;;;;;;;9.98;8.43;;;25.00;99.90;;;;;;5055685;28;20077;-56
2022/09/06 08:27:24;;;;;;;8.95;8.05;;;24.80;99.90;;;;;;5064310;28;20463;-56
2022/09/06 08:29:51;;;;;;;8.98;8.18;;;25.20;99.90;;;;;;5075796;28;20056;-57
2022/09/06 08:32:18;;;;;;;9.35;8.23;;;25.00;99.90;;;;;;5075883;28;20075;-57
2022/09/06 08:34:44;;;;;;;9.10;8.20;;;24.30;99.90;;;;;;5075813;28;20476;-57
2022/09/06 08:37:09;;;;;;;13.07;7.93;;;24.10;99.90;;;;;;5074939;28;20032;-57
2022/09/06 08:39:35;;;;;;;13.77;8.52;;;24.40;99.90;;;;;;5075555;28;20040;-57
2022/09/06 08:42:04;;;;;;;11.18;9.25;;;24.00;99.90;;;;;;5075584;28;20106;-57
2022/09/06 08:44:50;;;;;;;20.27;8.98;;;24.00;99.90;;;;;;5075755;28;20083;-57
2022/09/06 08:47:18;;;;;;;9.13;8.25;;;24.30;99.90;;;;;;5075141;28;20118;-57
2022/09/06 08:49:59;;;;;;;9.40;8.27;;;24.20;99.90;;;;;;5075481;28;20040;-57
2022/09/06 08:52:45;;;;;;;12.02;9.30;;;24.40;99.90;;;;;;5075068;28;20051;-57
2022/09/06 08:55:18;;;;;;;10.45;8.65;;;24.80;99.90;;;;;;5057054;28;20045;-57
2022/09/06 08:57:54;;;;;;;11.13;8.98;;;25.40;99.90;;;;;;5075242;28;20097;-57
2022/09/06 09:00:21;;;;;;;12.23;8.90;;;25.90;99.90;;;;;;5074722;28;20044;-57
2022/09/06 09:03:10;;;;;;;14.88;9.48;;;26.30;99.90;;;;;;5075564;28;20120;-57
2022/09/06 09:05:38;;;;;;;14.60;8.98;;;26.50;99.50;;;;;;5074378;28;20052;-57
2022/09/06 09:08:36;;;;;;;9.90;8.68;;;26.90;99.90;;;;;;5074430;28;20122;-57
2022/09/06 09:11:06;;;;;;;11.85;8.93;;;26.80;98.90;;;;;;5063766;28;20052;-57
2022/09/06 09:13:54;;;;;;;14.75;8.57;;;27.40;99.10;;;;;;5073910;28;20159;-57
2022/09/06 09:16:20;;;;;;;10.00;8.13;;;28.10;98.00;;;;;;5068814;28;20052;-57
2022/09/06 09:18:52;;;;;;;8.80;7.93;;;28.30;97.50;;;;;;5055811;28;20044;-57
2022/09/06 09:21:21;;;;;;;9.55;7.43;;;28.30;97.90;;;;;;5053946;28;20541;-57
2022/09/06 09:23:53;;;;;;;8.77;7.03;;;28.60;97.20;;;;;;5053762;28;20127;-57
2022/09/06 09:26:21;;;;;;;13.13;8.13;;;29.10;96.70;;;;;;5053238;28;20465;-57
2022/09/06 09:29:05;;;;;;;7.93;7.13;;;29.50;96.40;;;;;;5053889;28;20044;-57
2022/09/06 09:31:56;;;;;;;8.43;7.63;;;29.40;95.40;;;;;;5054586;28;20449;-57
2022/09/06 09:34:36;;;;;;;7.72;7.03;;;29.60;95.50;;;;;;5054535;28;20414;-57
2022/09/06 09:37:21;;;;;;;9.23;7.63;;;30.20;94.80;;;;;;5064433;28;20391;-58
2022/09/06 09:39:54;;;;;;;11.55;7.72;;;29.70;95.00;;;;;;5073443;28;20049;-58
2022/09/06 09:42:31;;;;;;;8.77;6.97;;;30.00;95.20;;;;;;5074001;28;20120;-57
2022/09/06 09:44:58;;;;;;;8.73;7.38;;;29.50;94.90;;;;;;5073791;28;20058;-58
2022/09/06 09:47:32;;;;;;;10.80;6.72;;;29.40;95.20;;;;;;5039309;28;20055;-58
2022/09/06 09:49:58;;;;;;;9.73;7.43;;;29.60;95.30;;;;;;5074270;28;20072;-58
2022/09/06 09:52:28;;;;;;;8.02;7.32;;;29.20;95.60;;;;;;5074023;28;20052;-58
2022/09/06 09:55:00;;;;;;;8.13;7.32;;;28.50;95.70;;;;;;5074652;28;20079;-57
2022/09/06 09:57:28;;;;;;;7.47;6.88;;;28.20;95.40;;;;;;5074530;28;20053;-58
2022/09/06 09:59:59;;;;;;;8.35;7.55;;;28.00;96.20;;;;;;5074462;28;20047;-58
2022/09/06 10:02:35;;;;;;;12.68;7.00;;;27.90;96.50;;;;;;5074654;28;20894;-58
2022/09/06 10:05:14;;;;;;;11.10;7.80;;;27.80;96.60;;;;;;5056344;28;20080;-58
2022/09/06 10:07:43;;;;;;;7.53;6.72;;;28.00;96.70;;;;;;5072789;28;20079;-57
2022/09/06 10:10:38;;;;;;;7.30;6.65;;;28.10;96.40;;;;;;5073304;28;20387;-57
2022/09/06 10:13:20;;;;;;;7.18;6.57;;;28.10;96.20;;;;;;5052409;28;20415;-58
2022/09/06 10:15:48;;;;;;;7.03;6.30;;;28.50;96.30;;;;;;5054473;28;20045;-58
2022/09/06 10:18:30;;;;;;;7.30;6.60;;;28.10;96.40;;;;;;5061501;28;20048;-57
2022/09/06 10:21:04;;;;;;;7.65;6.97;;;28.70;95.70;;;;;;5074110;28;20381;-58
2022/09/06 10:24:02;;;;;;;11.07;7.00;;;29.00;95.60;;;;;;5074305;28;20041;-58
2022/09/06 10:26:50;;;;;;;8.18;7.10;;;28.90;95.20;;;;;;5039911;28;20483;-57
2022/09/06 10:29:40;;;;;;;10.70;7.53;;;29.10;95.40;;;;;;5074282;28;20048;-58
2022/09/06 10:32:26;;;;;;;10.38;7.30;;;29.00;95.30;;;;;;5073791;28;20048;-57
2022/09/06 10:35:06;;;;;;;13.93;7.05;;;28.60;95.30;;;;;;5072916;28;20041;-58
2022/09/06 10:38:04;;;;;;;7.97;7.28;;;28.40;95.00;;;;;;5059578;28;20044;-58
2022/09/06 10:40:41;;;;;;;7.47;6.78;;;28.40;95.10;;;;;;5054136;28;20048;-58
2022/09/06 10:43:14;;;;;;;10.82;6.93;;;28.90;95.50;;;;;;5056180;28;20087;-58
2022/09/06 10:45:57;;;;;;;7.28;6.25;;;28.80;95.00;;;;;;5073823;28;20045;-58
2022/09/06 10:48:26;;;;;;;8.27;6.30;;;28.80;95.00;;;;;;5073768;28;20100;-58
2022/09/06 10:50:59;;;;;;;10.48;6.47;;;28.80;95.10;;;;;;5073209;28;20847;-57
2022/09/06 10:53:44;;;;;;;;;;;28.60;94.80;;;;;;5074091;28;20073;-58
2022/09/06 10:56:21;;;;;;;7.97;5.60;;;28.60;94.40;;;;;;5073257;28;19928;-58
2022/09/06 10:58:56;;;;;;;6.13;5.50;;;28.50;94.90;;;;;;5073284;28;20040;-58
2022/09/06 11:01:41;;;;;;;6.68;6.00;;;28.40;94.90;;;;;;5072059;28;20482;-57
2022/09/06 11:04:18;;;;;;;6.32;5.72;;;28.40;94.30;;;;;;5072788;28;20071;-58
2022/09/06 11:06:49;;;;;;;6.95;6.35;;;28.80;94.50;;;;;;5072878;28;20102;-58
2022/09/06 11:09:43;;;;;;;10.30;6.15;;;28.60;94.60;;;;;;5073261;28;20119;-57
2022/09/06 11:12:30;;;;;;;24.10;8.38;;;28.90;94.30;;;;;;5072828;28;20418;-57
2022/09/06 11:14:56;;;;;;;7.93;6.15;;;29.20;94.50;;;;;;5056542;28;20044;-59
2022/09/06 11:17:45;;;;;;;6.95;5.93;;;29.20;94.20;;;;;;5058183;28;20094;-59
2022/09/06 11:20:25;;;;;;;6.15;5.55;;;29.20;93.80;;;;;;5062432;28;20059;-65
2022/09/06 11:23:11;;;;;;;5.90;5.40;;;29.70;93.90;;;;;;5069249;28;20090;-59
2022/09/06 11:25:43;;;;;;;7.13;6.28;;;31.20;93.50;;;;;;5067909;28;20068;-60
2022/09/06 11:28:14;;;;;;;6.18;5.60;;;32.80;92.50;;;;;;5068922;28;20052;-60
2022/09/06 11:30:46;;;;;;;9.25;5.25;;;34.00;91.30;;;;;;5067094;28;20048;-60
2022/09/06 11:33:25;;;;;;;5.97;5.38;;;34.70;90.80;;;;;;5068273;28;20053;-65
2022/09/06 11:35:52;;;;;;;7.13;5.07;;;35.50;88.80;;;;;;5078120;28;20128;-65
2022/09/06 11:38:25;;;;;;;5.13;4.40;;;35.20;89.10;;;;;;5068543;28;20181;-64
2022/09/06 11:41:03;;;;;;;5.25;4.55;;;36.40;86.10;;;;;;5067849;28;20397;-63
2022/09/06 11:43:49;;;;;;;5.25;4.78;;;36.80;87.00;;;;;;5069231;28;20060;-64
2022/09/06 11:46:33;;;;;;;7.38;4.85;;;37.60;84.20;;;;;;5068892;28;20509;-63
2022/09/06 11:49:28;;;;;;;;;;;37.60;84.40;;;;;;5069257;28;20493;-62
2022/09/06 11:51:54;;;;;;;5.72;4.78;;;38.70;83.20;;;;;;5050851;28;19931;-64
2022/09/06 11:54:52;;;;;;;5.00;3.72;;;37.60;82.10;;;;;;5069078;28;20044;-58
2022/09/06 11:57:21;;;;;;;4.85;4.07;;;37.70;82.10;;;;;;5034642;28;20612;-59
2022/09/06 11:59:59;;;;;;;5.65;4.65;;;37.40;82.30;;;;;;5069015;28;20663;-58
2022/09/06 12:02:39;;;;;;;6.82;4.85;;;36.20;81.10;;;;;;5068927;28;20120;-58
2022/09/06 12:05:08;;;;;;;7.30;4.90;;;34.30;83.50;;;;;;5050596;28;20091;-58
2022/09/06 12:07:36;;;;;;;5.35;4.70;;;33.60;86.30;;;;;;5067816;28;20044;-58
2022/09/06 12:10:30;;;;;;;5.63;4.10;;;33.00;86.20;;;;;;5068861;28;20060;-58
2022/09/06 12:12:57;;;;;;;9.98;4.75;;;32.70;86.60;;;;;;5064615;28;20458;-59
2022/09/06 12:15:27;;;;;;;6.97;4.68;;;32.30;88.30;;;;;;5047096;28;20131;-58
2022/09/06 12:17:53;;;;;;;5.43;4.93;;;31.60;87.50;;;;;;5058710;28;20537;-59
2022/09/06 12:20:47;;;;;;;5.57;5.00;;;31.40;88.70;;;;;;5064122;28;20411;-58
2022/09/06 12:23:34;;;;;;;6.43;4.97;;;31.50;88.50;;;;;;5068697;28;20051;-58
2022/09/06 12:26:10;;;;;;;9.07;4.95;;;31.70;89.30;;;;;;5068324;28;20052;-58
2022/09/06 12:28:41;;;;;;;5.93;5.32;;;31.80;89.70;;;;;;5068583;28;20059;-58
2022/09/06 12:31:25;;;;;;;6.82;4.60;;;31.50;89.30;;;;;;5066751;28;20119;-58
2022/09/06 12:33:53;;;;;;;5.82;5.22;;;31.90;89.70;;;;;;5068121;28;20386;-58
2022/09/06 12:36:29;;;;;;;5.82;4.93;;;31.80;89.30;;;;;;5063793;28;20119;-58
2022/09/06 12:39:00;;;;;;;8.63;5.85;;;31.70;90.00;;;;;;5048885;28;20048;-58
2022/09/06 12:41:29;;;;;;;7.35;4.07;;;31.70;90.10;;;;;;5048839;28;20091;-58
2022/09/06 12:43:57;;;;;;;6.20;5.32;;;31.90;90.20;;;;;;5047444;28;20040;-58
2022/09/06 12:46:24;;;;;;;6.15;5.55;;;31.60;89.70;;;;;;5047235;28;20045;-58
2022/09/06 12:49:10;;;;;;;7.50;5.60;;;32.10;89.80;;;;;;5053998;28;20098;-58
2022/09/06 12:51:38;;;;;;;6.95;4.75;;;32.10;89.00;;;;;;5067435;28;20064;-58
2022/09/06 12:54:25;;;;;;;4.38;3.97;;;32.20;90.00;;;;;;5067808;28;20479;-58
2022/09/06 12:56:51;;;;;;;6.65;4.10;;;32.60;89.50;;;;;;5067936;28;20048;-58
2022/09/06 12:59:19;;;;;;;6.50;5.22;;;33.00;89.80;;;;;;5070201;28;20049;-58
2022/09/06 13:02:12;;;;;;;7.10;4.50;;;33.00;89.30;;;;;;5053937;28;20052;-58
2022/09/06 13:04:45;;;;;;;6.95;4.28;;;33.00;87.50;;;;;;5071300;28;20550;-58
2022/09/06 13:07:15;;;;;;;6.90;3.78;;;32.90;88.20;;;;;;5070215;28;20048;-58